Time;durP1;ratioP1;P1;durP2;ratioP2;P2;SDS_P1;SDS_P2;PMS_P1;PMS_P2;Temp;Humidity;BMP_temperature;BMP_pressure;BME280_temperature;BME280_humidity;BME280_pressure;Samples;Min_cycle;Max_cycle;Signal;HPM_P1;HPM_P2
2021/08/21 00:02:16;;;;;;;17.42;10.82;;;;;;;14.27;97.10;101866.34;5074668;28;20027;-47
2021/08/21 00:04:41;;;;;;;16.13;10.70;;;;;;;14.24;96.62;101874.91;5076298;28;20032;-47
2021/08/21 00:07:07;;;;;;;17.38;10.73;;;;;;;14.16;96.07;101862.63;5065862;28;20718;-49
2021/08/21 00:09:33;;;;;;;21.25;10.70;;;;;;;14.15;96.24;101872.59;5043441;28;20028;-46
2021/08/21 00:11:59;;;;;;;18.05;10.75;;;;;;;14.07;95.76;101873.03;5062173;28;20032;-46
2021/08/21 00:14:25;;;;;;;20.77;12.30;;;;;;;13.97;96.26;101875.53;5062200;28;20447;-47
2021/08/21 00:16:50;;;;;;;16.90;10.85;;;;;;;14.00;96.23;101879.63;5061802;28;20032;-48
2021/08/21 00:19:16;;;;;;;19.50;11.18;;;;;;;13.88;96.91;101877.81;5060948;28;20029;-47
2021/08/21 00:21:42;;;;;;;16.52;9.52;;;;;;;13.94;96.58;101880.59;5062829;28;20024;-46
2021/08/21 00:24:07;;;;;;;20.63;10.98;;;;;;;13.95;96.06;101880.34;5061775;28;20041;-47
2021/08/21 00:26:33;;;;;;;16.52;10.38;;;;;;;13.91;95.65;101879.22;5064777;28;20024;-48
2021/08/21 00:28:58;;;;;;;17.13;10.77;;;;;;;13.87;95.47;101881.56;5062145;28;20058;-47
2021/08/21 00:31:24;;;;;;;13.90;9.80;;;;;;;13.84;95.07;101878.56;5060843;28;20814;-47
2021/08/21 00:33:49;;;;;;;22.33;11.85;;;;;;;13.75;94.85;101878.09;5064394;28;20464;-47
2021/08/21 00:36:15;;;;;;;15.32;9.48;;;;;;;13.73;94.83;101884.81;5063386;28;20048;-46
2021/08/21 00:38:41;;;;;;;20.83;12.23;;;;;;;13.68;94.65;101876.63;5062128;28;20295;-47
2021/08/21 00:41:07;;;;;;;23.70;13.57;;;;;;;13.61;95.46;101884.84;5061129;28;20062;-46
2021/08/21 00:43:35;;;;;;;21.73;13.55;;;;;;;13.55;97.71;101881.25;5060649;28;20041;-46
2021/08/21 00:46:01;;;;;;;23.92;14.00;;;;;;;13.56;98.29;101884.75;5061672;28;20231;-45
2021/08/21 00:48:27;;;;;;;27.20;14.70;;;;;;;13.62;98.65;101886.47;5061884;28;20483;-46
2021/08/21 00:50:53;;;;;;;25.58;14.55;;;;;;;13.55;99.91;101883.13;5060468;28;20028;-47
2021/08/21 00:53:19;;;;;;;26.42;14.38;;;;;;;13.55;100.00;101889.31;5060869;28;20700;-46
2021/08/21 00:55:48;;;;;;;26.02;14.90;;;;;;;13.53;100.00;101886.06;5061554;28;20024;-48
2021/08/21 00:58:13;;;;;;;30.05;15.25;;;;;;;13.54;100.00;101895.75;5062694;28;20043;-49
2021/08/21 01:00:39;;;;;;;29.08;15.02;;;;;;;13.57;99.01;101897.97;5060405;28;20028;-46
2021/08/21 01:03:04;;;;;;;20.33;12.38;;;;;;;13.55;98.13;101892.00;5061067;28;20032;-46
2021/08/21 01:05:30;;;;;;;33.72;15.93;;;;;;;13.45;98.86;101899.88;5061150;28;20031;-47
2021/08/21 01:07:56;;;;;;;32.08;16.20;;;;;;;13.41;99.42;101896.03;5061077;28;20354;-46
2021/08/21 01:10:21;;;;;;;32.88;16.90;;;;;;;13.32;100.00;101891.28;5061427;28;20032;-47
2021/08/21 01:12:51;;;;;;;34.78;16.67;;;;;;;13.30;100.00;101897.72;5062032;28;20032;-46
2021/08/21 01:15:22;;;;;;;33.45;16.40;;;;;;;13.20;100.00;101897.50;5060740;28;20680;-47
2021/08/21 01:17:51;;;;;;;34.58;16.30;;;;;;;13.24;100.00;101892.44;5058627;28;20043;-49
2021/08/21 01:20:16;;;;;;;32.10;16.17;;;;;;;13.21;100.00;101892.94;5059574;28;20078;-46
2021/08/21 01:22:42;;;;;;;31.00;15.15;;;;;;;13.22;100.00;101902.63;5062048;28;22187;-47
2021/08/21 01:25:13;;;;;;;32.80;15.82;;;;;;;13.17;100.00;101897.13;5062979;28;20027;-46
2021/08/21 01:27:39;;;;;;;24.27;12.40;;;;;;;13.15;100.00;101891.16;5061572;28;20151;-47
2021/08/21 01:30:05;;;;;;;30.67;15.60;;;;;;;13.04;100.00;101900.06;5062420;28;20050;-47
2021/08/21 01:32:31;;;;;;;32.38;15.40;;;;;;;13.06;100.00;101895.25;5058334;28;20032;-46
2021/08/21 01:34:57;;;;;;;28.98;14.57;;;;;;;13.10;100.00;101896.41;5060498;28;20580;-47
2021/08/21 01:37:25;;;;;;;31.38;15.35;;;;;;;13.06;100.00;101903.34;5054168;28;20032;-47
2021/08/21 01:39:53;;;;;;;26.15;13.23;;;;;;;13.11;100.00;101898.91;5059716;28;20505;-46
2021/08/21 01:42:19;;;;;;;34.97;15.55;;;;;;;13.09;100.00;101902.84;5061077;28;20243;-47
2021/08/21 01:44:45;;;;;;;28.80;13.65;;;;;;;13.12;99.65;101905.09;5060224;28;20488;-46
2021/08/21 01:47:14;;;;;;;27.88;14.38;;;;;;;13.08;99.79;101901.22;5060439;28;20040;-46
2021/08/21 01:49:43;;;;;;;30.67;14.48;;;;;;;13.09;99.98;101900.16;5061718;28;20454;-46
2021/08/21 01:52:10;;;;;;;31.10;14.13;;;;;;;13.06;100.00;101895.25;5059048;28;20027;-46
2021/08/21 01:54:37;;;;;;;28.63;14.40;;;;;;;13.07;99.85;101899.59;5060886;28;21185;-46
2021/08/21 01:57:05;;;;;;;33.33;15.15;;;;;;;13.07;99.19;101902.28;5062733;28;20598;-47
2021/08/21 01:59:42;;;;;;;23.63;13.10;;;;;;;13.00;98.72;101905.94;5063817;28;20516;-46
2021/08/21 02:02:13;;;;;;;22.75;12.45;;;;;;;12.99;98.19;101901.59;5059387;28;20043;-46
2021/08/21 02:04:39;;;;;;;25.63;12.23;;;;;;;12.94;97.78;101914.13;5056502;28;20732;-46
2021/08/21 02:07:05;;;;;;;24.95;12.63;;;;;;;12.92;97.35;101900.06;5062968;28;20032;-46
2021/08/21 02:09:31;;;;;;;24.52;11.85;;;;;;;12.92;97.31;101900.06;5062080;28;20039;-46
2021/08/21 02:11:57;;;;;;;25.75;12.27;;;;;;;12.83;97.29;101907.69;5061232;28;20036;-46
2021/08/21 02:14:24;;;;;;;33.45;13.02;;;;;;;12.65;96.96;101910.50;5060240;28;20043;-46
2021/08/21 02:16:55;;;;;;;41.03;10.50;;;;;;;12.60;96.81;101913.06;5062307;28;20038;-46
2021/08/21 02:19:21;;;;;;;18.73;9.82;;;;;;;12.57;96.51;101910.84;5063089;28;20411;-46
2021/08/21 02:21:49;;;;;;;23.50;10.77;;;;;;;12.42;96.35;101905.94;5060942;28;20028;-47
2021/08/21 02:24:15;;;;;;;63.15;16.58;;;;;;;12.36;96.42;101913.03;5061915;28;20490;-46
2021/08/21 02:26:43;;;;;;;23.42;12.18;;;;;;;12.25;96.32;101910.34;5062462;28;20031;-46
2021/08/21 02:29:13;;;;;;;20.63;10.45;;;;;;;12.23;96.33;101910.56;5058021;28;20058;-45
2021/08/21 02:31:39;;;;;;;35.42;14.73;;;;;;;12.21;96.15;101918.03;5064384;28;20041;-47
2021/08/21 02:34:05;;;;;;;21.95;11.40;;;;;;;12.16;96.41;101927.81;5061323;28;20031;-47
2021/08/21 02:36:31;;;;;;;36.05;15.30;;;;;;;12.13;96.72;101922.91;5060287;28;20397;-46
2021/08/21 02:38:57;;;;;;;38.30;15.95;;;;;;;11.87;100.00;101924.13;5059047;28;20075;-46
2021/08/21 02:41:22;;;;;;;32.97;14.52;;;;;;;11.97;99.44;101921.69;5059641;28;20069;-47
2021/08/21 02:43:48;;;;;;;29.63;13.45;;;;;;;12.00;98.31;101918.53;5060239;28;20036;-46
2021/08/21 02:46:14;;;;;;;21.23;11.93;;;;;;;12.00;97.53;101924.75;5059703;28;20473;-46
2021/08/21 02:48:39;;;;;;;20.35;10.90;;;;;;;11.99;97.03;101923.09;5062322;28;20577;-46
2021/08/21 02:51:05;;;;;;;18.45;10.10;;;;;;;11.95;96.62;101923.78;5061044;28;20478;-46
2021/08/21 02:53:30;;;;;;;20.65;10.52;;;;;;;11.90;96.19;101920.97;5061688;28;20149;-46
2021/08/21 02:55:56;;;;;;;16.98;8.68;;;;;;;11.87;95.72;101932.19;5057197;28;20020;-45
2021/08/21 02:58:22;;;;;;;14.25;8.38;;;;;;;11.84;95.40;101925.38;5059742;28;20112;-46
2021/08/21 03:00:47;;;;;;;18.80;8.98;;;;;;;11.76;95.07;101929.19;5060711;28;20067;-47
2021/08/21 03:03:13;;;;;;;15.02;8.13;;;;;;;11.73;95.07;101928.81;5060067;28;20036;-45
2021/08/21 03:05:39;;;;;;;16.33;7.82;;;;;;;11.70;94.69;101927.41;5060947;28;20063;-45
2021/08/21 03:08:05;;;;;;;13.98;6.25;;;;;;;11.65;94.35;101931.81;5063297;28;20386;-46
2021/08/21 03:10:31;;;;;;;11.23;6.35;;;;;;;11.62;94.51;101938.44;5061128;28;20036;-46
2021/08/21 03:12:57;;;;;;;15.52;7.57;;;;;;;11.63;94.34;101934.72;5059600;28;20021;-46
2021/08/21 03:15:24;;;;;;;70.57;12.25;;;;;;;11.59;93.99;101936.22;5063172;28;20529;-47
2021/08/21 03:17:50;;;;;;;31.45;10.43;;;;;;;11.58;94.04;101933.75;5059373;28;21602;-46
2021/08/21 03:20:16;;;;;;;44.08;12.13;;;;;;;11.56;94.30;101936.69;5058725;28;21929;-46
2021/08/21 03:22:41;;;;;;;22.45;9.18;;;;;;;11.63;94.09;101934.72;5060191;28;20034;-45
2021/08/21 03:25:07;;;;;;;36.88;14.23;;;;;;;11.67;94.18;101941.28;5059670;28;20032;-46
2021/08/21 03:27:32;;;;;;;22.63;10.35;;;;;;;11.76;93.66;101937.25;5062164;28;20055;-47
2021/08/21 03:29:58;;;;;;;20.60;10.50;;;;;;;11.84;94.14;101932.63;5059186;28;20036;-46
2021/08/21 03:32:23;;;;;;;21.92;10.98;;;;;;;11.90;94.31;101935.22;5059569;28;20123;-46
2021/08/21 03:34:49;;;;;;;26.58;11.13;;;;;;;12.01;94.15;101939.00;5058710;28;20059;-46
2021/08/21 03:37:14;;;;;;;26.08;11.30;;;;;;;12.12;93.88;101942.78;5059907;28;20238;-46
2021/08/21 03:39:40;;;;;;;42.33;12.88;;;;;;;12.17;93.95;101941.03;5060149;28;20035;-45
2021/08/21 03:42:06;;;;;;;61.25;15.07;;;;;;;12.22;94.01;101949.25;5060870;28;20123;-46
2021/08/21 03:44:32;;;;;;;47.65;13.27;;;;;;;12.29;93.82;101947.25;5064359;28;20035;-46
2021/08/21 03:46:58;;;;;;;46.00;12.57;;;;;;;12.37;93.47;101954.16;5062352;28;20048;-46
2021/08/21 03:49:24;;;;;;;34.25;11.48;;;;;;;12.43;93.21;101958.63;5062633;28;20608;-45
2021/08/21 03:51:49;;;;;;;66.25;14.70;;;;;;;12.50;93.21;101962.03;5062690;28;20032;-46
2021/08/21 03:54:15;;;;;;;87.55;18.10;;;;;;;12.54;93.60;101944.38;5062249;28;20119;-46
2021/08/21 03:56:40;;;;;;;61.60;15.65;;;;;;;12.61;93.51;101946.97;5075868;28;20067;-46
2021/08/21 03:59:06;;;;;;;63.25;16.00;;;;;;;12.66;93.45;101955.16;5063942;28;20474;-46
2021/08/21 04:01:32;;;;;;;71.90;17.75;;;;;;;12.70;93.55;101959.00;5064284;28;20056;-46
2021/08/21 04:03:57;;;;;;;57.15;15.73;;;;;;;12.77;93.44;101961.59;5062998;28;20130;-46
2021/08/21 04:06:23;;;;;;;84.50;17.85;;;;;;;12.81;93.45;101958.22;5063147;28;20038;-46
2021/08/21 04:08:49;;;;;;;52.88;16.00;;;;;;;12.86;93.50;101962.88;5063441;28;20032;-46
2021/08/21 04:11:14;;;;;;;68.53;17.90;;;;;;;12.92;93.44;101965.44;5060674;28;20104;-47
2021/08/21 04:13:40;;;;;;;98.93;19.17;;;;;;;12.94;93.75;101971.44;5064801;28;20064;-46
2021/08/21 04:16:05;;;;;;;79.45;19.48;;;;;;;12.98;93.83;101974.47;5063011;28;20058;-46
2021/08/21 04:18:31;;;;;;;174.13;26.98;;;;;;;13.02;94.12;101976.44;5063689;28;20034;-45
2021/08/21 04:20:57;;;;;;;106.80;21.60;;;;;;;12.97;95.96;101979.03;5060836;28;21827;-46
2021/08/21 04:23:23;;;;;;;46.90;16.25;;;;;;;13.06;95.00;101978.66;5062545;28;20516;-46
2021/08/21 04:25:48;;;;;;;55.85;17.35;;;;;;;13.13;94.75;101982.91;5063275;28;20047;-46
2021/08/21 04:28:14;;;;;;;44.55;16.77;;;;;;;13.24;94.42;101978.56;5063772;28;20036;-47
2021/08/21 04:30:39;;;;;;;60.05;17.58;;;;;;;13.29;94.56;101989.47;5061532;28;20432;-46
2021/08/21 04:33:05;;;;;;;108.68;21.77;;;;;;;13.35;94.48;101982.31;5063908;28;20058;-46
2021/08/21 04:35:31;;;;;;;46.25;14.20;;;;;;;13.42;94.57;101991.88;5063628;28;20028;-46
2021/08/21 04:37:57;;;;;;;64.60;17.67;;;;;;;13.50;94.25;101994.22;5062518;28;20130;-46
2021/08/21 04:40:23;;;;;;;62.88;17.20;;;;;;;13.57;94.03;101989.53;5059997;28;20032;-46
2021/08/21 04:42:48;;;;;;;37.90;14.45;;;;;;;13.61;94.28;101995.25;5063077;28;20474;-46
2021/08/21 04:45:14;;;;;;;52.80;15.75;;;;;;;13.65;94.11;102001.00;5063856;28;20027;-46
2021/08/21 04:47:39;;;;;;;52.08;14.70;;;;;;;13.67;94.03;102004.28;5062137;28;20726;-46
2021/08/21 04:50:06;;;;;;;39.22;14.77;;;;;;;13.74;93.67;102005.75;5062000;28;20579;-46
2021/08/21 04:52:32;;;;;;;35.70;14.25;;;;;;;13.80;93.67;102012.06;5061602;28;20052;-46
2021/08/21 04:54:58;;;;;;;47.80;15.68;;;;;;;13.88;93.56;102011.69;5079532;27;20405;-46
2021/08/21 04:57:24;;;;;;;49.80;15.48;;;;;;;13.95;93.43;102015.06;5062903;28;20133;-46
2021/08/21 04:59:49;;;;;;;44.20;15.90;;;;;;;14.03;93.30;102013.88;5062812;28;20034;-46
2021/08/21 05:02:15;;;;;;;86.68;18.48;;;;;;;14.07;93.09;102017.72;5061963;28;20028;-47
2021/08/21 05:04:41;;;;;;;52.78;15.90;;;;;;;14.01;93.37;102021.41;5066080;28;20040;-47
2021/08/21 05:07:07;;;;;;;64.90;18.70;;;;;;;14.09;93.14;102019.13;5063996;28;20032;-46
2021/08/21 05:09:34;;;;;;;45.03;16.52;;;;;;;14.17;92.88;102021.41;5043755;22;20060;-86
2021/08/21 05:12:00;;;;;;;94.05;21.83;;;;;;;14.25;92.52;102022.09;5013180;28;20037;-86
2021/08/21 05:14:27;;;;;;;42.88;16.67;;;;;;;14.29;92.44;102015.97;5010786;28;20037;-85
2021/08/21 05:16:53;;;;;;;44.22;17.35;;;;;;;14.36;92.10;102013.97;5012243;28;20274;-86
2021/08/21 05:19:29;;;;;;;85.60;21.33;;;;;;;14.36;91.83;102027.47;5010081;28;20726;-86
2021/08/21 05:21:58;;;;;;;97.80;24.60;;;;;;;14.04;93.80;102031.69;5039417;23;20092;-46
2021/08/21 05:24:23;;;;;;;57.72;20.70;;;;;;;13.89;95.17;102024.13;5027542;28;20033;-46
2021/08/21 05:26:49;;;;;;;51.63;20.33;;;;;;;14.12;94.48;102024.03;5027765;28;20401;-45
2021/08/21 05:29:17;;;;;;;43.97;18.20;;;;;;;14.12;94.12;102026.72;5027931;28;20489;-46
2021/08/21 05:31:43;;;;;;;41.70;18.65;;;;;;;14.16;94.44;102029.75;5027481;28;20236;-45
2021/08/21 05:34:13;;;;;;;39.80;19.10;;;;;;;14.24;93.57;102033.94;5026585;28;20033;-46
2021/08/21 05:36:39;;;;;;;36.38;19.08;;;;;;;14.37;92.66;102030.97;5027650;28;20032;-47
2021/08/21 05:39:07;;;;;;;39.47;19.10;;;;;;;14.47;92.21;102029.28;5028379;28;20040;-45
2021/08/21 05:41:33;;;;;;;39.67;19.05;;;;;;;14.55;91.74;102021.88;5027500;28;20136;-46
2021/08/21 05:43:59;;;;;;;38.92;19.80;;;;;;;14.63;91.53;102024.97;5028836;28;20039;-45
2021/08/21 05:46:24;;;;;;;36.63;18.77;;;;;;;14.66;91.21;102029.06;5025973;28;20041;-45
2021/08/21 05:48:50;;;;;;;40.28;20.15;;;;;;;14.86;89.81;102040.19;5027918;28;20557;-47
2021/08/21 05:51:15;;;;;;;37.70;18.90;;;;;;;14.90;89.19;102032.41;5026780;28;20444;-47
2021/08/21 05:53:40;;;;;;;40.38;20.65;;;;;;;14.85;89.08;102045.84;5026622;28;20025;-45
2021/08/21 05:56:06;;;;;;;42.03;21.15;;;;;;;14.92;88.58;102044.63;5025010;28;20265;-46
2021/08/21 05:58:31;;;;;;;43.00;19.95;;;;;;;14.90;88.22;102054.00;5026122;28;20503;-46
2021/08/21 06:00:57;;;;;;;45.00;20.92;;;;;;;14.65;88.90;102051.72;5028796;28;20025;-47
2021/08/21 06:03:22;;;;;;;39.25;19.65;;;;;;;14.77;88.50;102053.28;5026007;28;20040;-46
2021/08/21 06:05:48;;;;;;;41.92;21.45;;;;;;;14.92;88.03;102051.91;5025104;28;20110;-45
2021/08/21 06:08:13;;;;;;;41.35;21.30;;;;;;;14.94;87.56;102055.19;5026530;28;20043;-55
2021/08/21 06:10:42;;;;;;;49.40;22.17;;;;;;;15.01;87.36;102063.91;5027082;28;20529;-46
2021/08/21 06:13:08;;;;;;;41.92;21.50;;;;;;;15.00;86.71;102067.69;5027437;28;20962;-46
2021/08/21 06:15:34;;;;;;;40.60;21.67;;;;;;;14.77;87.91;102064.06;5026006;28;20033;-46
2021/08/21 06:17:59;;;;;;;40.97;21.67;;;;;;;14.74;88.75;102063.75;5027286;28;20513;-45
2021/08/21 06:20:25;;;;;;;43.97;21.80;;;;;;;14.81;89.47;102065.22;5025088;28;20331;-46
2021/08/21 06:22:50;;;;;;;42.70;22.00;;;;;;;15.17;87.86;102065.78;5018924;28;20070;-45
2021/08/21 06:25:16;;;;;;;40.53;22.05;;;;;;;15.42;87.04;102070.75;5027713;28;20035;-46
2021/08/21 06:27:41;;;;;;;37.53;20.42;;;;;;;15.54;86.26;102073.34;5025237;28;20056;-46
2021/08/21 06:30:08;;;;;;;37.83;21.50;;;;;;;15.81;85.21;102059.97;5025055;28;20037;-45
2021/08/21 06:32:33;;;;;;;37.08;21.80;;;;;;;15.99;84.50;102068.59;5024895;28;20384;-46
2021/08/21 06:34:59;;;;;;;37.92;21.98;;;;;;;16.18;82.94;102070.97;5024604;28;20118;-46
2021/08/21 06:37:24;;;;;;;41.50;22.55;;;;;;;16.29;82.37;102073.50;5022291;28;20110;-46
2021/08/21 06:39:50;;;;;;;39.13;21.48;;;;;;;16.42;81.89;102076.91;5025329;28;20658;-47
2021/08/21 06:42:15;;;;;;;45.60;25.25;;;;;;;16.48;81.04;102078.56;5021319;28;20115;-46
2021/08/21 06:44:41;;;;;;;45.05;23.55;;;;;;;16.01;81.68;102074.56;5025180;28;20024;-46
2021/08/21 06:47:06;;;;;;;49.75;25.63;;;;;;;16.13;81.71;102081.69;5024454;28;20029;-48
2021/08/21 06:49:31;;;;;;;44.95;24.98;;;;;;;15.97;82.48;102076.09;5027048;28;20033;-46
2021/08/21 06:51:57;;;;;;;46.70;25.55;;;;;;;16.26;81.90;102079.44;5023873;28;20139;-49
2021/08/21 06:54:23;;;;;;;48.72;25.23;;;;;;;16.44;80.77;102077.47;5025429;28;20438;-46
2021/08/21 06:56:48;;;;;;;48.65;24.50;;;;;;;16.37;80.61;102077.66;5025486;28;20081;-46
2021/08/21 06:59:13;;;;;;;52.75;26.63;;;;;;;16.45;80.48;102087.19;5025455;28;20039;-47
2021/08/21 07:01:39;;;;;;;42.38;24.50;;;;;;;16.56;79.83;102080.84;5025407;28;20036;-46
2021/08/21 07:04:05;;;;;;;34.83;20.08;;;;;;;16.64;78.67;102083.06;5026450;28;20064;-46
2021/08/21 07:06:31;;;;;;;42.85;21.33;;;;;;;16.76;78.37;102083.75;5024845;28;20033;-46
2021/08/21 07:08:57;;;;;;;62.30;30.42;;;;;;;16.96;77.96;102083.13;5025922;28;20355;-46
2021/08/21 07:11:22;;;;;;;64.80;31.50;;;;;;;17.07;77.99;102086.75;5024202;28;20115;-45
2021/08/21 07:13:47;;;;;;;70.28;33.70;;;;;;;17.30;77.60;102080.94;5026512;28;20037;-47
2021/08/21 07:16:13;;;;;;;60.72;31.80;;;;;;;17.37;76.04;102080.72;5026120;28;20942;-48
2021/08/21 07:18:39;;;;;;;69.55;35.35;;;;;;;16.99;78.50;102084.50;5029054;28;20095;-46
2021/08/21 07:21:08;;;;;;;62.10;31.70;;;;;;;17.31;76.87;102079.88;5032106;28;20037;-47
2021/08/21 07:23:33;;;;;;;54.70;30.30;;;;;;;17.41;76.65;102076.38;5029728;28;20106;-48
2021/08/21 07:25:59;;;;;;;50.38;28.80;;;;;;;17.38;76.92;102076.91;5027293;28;20037;-46
2021/08/21 07:28:24;;;;;;;49.65;30.25;;;;;;;17.26;76.90;102079.84;5028798;28;20033;-46
2021/08/21 07:30:50;;;;;;;50.95;29.75;;;;;;;17.51;76.52;102088.13;5026456;28;20032;-46
2021/08/21 07:33:15;;;;;;;53.35;29.95;;;;;;;17.79;75.55;102084.25;5029472;28;20585;-47
2021/08/21 07:35:41;;;;;;;46.67;27.15;;;;;;;17.86;74.83;102084.00;5028401;28;20124;-46
2021/08/21 07:38:06;;;;;;;38.97;23.65;;;;;;;18.03;74.05;102087.31;5041943;28;20772;-47
2021/08/21 07:40:34;;;;;;;38.53;23.08;;;;;;;18.11;73.19;102094.94;5029461;28;20029;-46
2021/08/21 07:43:00;;;;;;;37.97;23.50;;;;;;;17.55;75.44;102099.25;5025303;28;20296;-47
2021/08/21 07:45:26;;;;;;;35.38;22.20;;;;;;;17.60;74.66;102099.31;5026695;28;20029;-46
2021/08/21 07:47:52;;;;;;;39.45;23.10;;;;;;;17.61;74.66;102103.63;5029545;28;21545;-48
2021/08/21 07:50:18;;;;;;;39.80;23.67;;;;;;;17.72;74.85;102094.50;5027104;28;20163;-46
2021/08/21 07:52:45;;;;;;;31.70;21.13;;;;;;;17.80;74.53;102095.91;5023944;28;20044;-45
2021/08/21 07:55:11;;;;;;;25.30;17.75;;;;;;;17.59;74.24;102111.19;5026555;28;20025;-48
2021/08/21 07:57:36;;;;;;;24.90;17.95;;;;;;;17.48;74.94;102107.63;5022534;28;20052;-46
2021/08/21 08:00:03;;;;;;;23.77;17.33;;;;;;;17.41;75.43;102111.63;5030043;28;20029;-46
2021/08/21 08:02:28;;;;;;;26.73;18.48;;;;;;;17.63;74.99;102109.59;5027670;28;20033;-47
2021/08/21 08:04:54;;;;;;;26.25;17.52;;;;;;;17.99;73.95;102102.50;5027987;28;20145;-46
2021/08/21 08:07:19;;;;;;;25.77;17.38;;;;;;;18.52;72.94;102105.13;5026956;28;20341;-46
2021/08/21 08:09:45;;;;;;;27.50;17.17;;;;;;;18.51;72.25;102108.91;5026768;28;20083;-46
2021/08/21 08:12:10;;;;;;;23.58;16.75;;;;;;;18.67;71.04;102105.16;5026766;28;20040;-49
2021/08/21 08:14:36;;;;;;;24.20;17.40;;;;;;;18.88;70.59;102112.25;5039917;28;20029;-47
2021/08/21 08:17:02;;;;;;;24.27;16.70;;;;;;;18.72;70.81;102116.03;5025867;28;20025;-46
2021/08/21 08:19:27;;;;;;;21.30;15.30;;;;;;;19.00;70.15;102115.50;5027378;28;20083;-46
2021/08/21 08:21:53;;;;;;;18.95;13.57;;;;;;;19.26;69.40;102113.63;5028372;28;20387;-46
2021/08/21 08:24:19;;;;;;;19.38;13.48;;;;;;;19.51;68.22;102103.78;5026014;28;20029;-48
2021/08/21 08:26:45;;;;;;;19.75;15.07;;;;;;;19.81;68.28;102105.66;5028990;28;20036;-47
2021/08/21 08:29:11;;;;;;;18.67;13.88;;;;;;;20.17;67.84;102109.03;5029933;28;20109;-46
2021/08/21 08:31:37;;;;;;;20.05;14.05;;;;;;;20.31;66.18;102104.63;5020966;28;20133;-47
2021/08/21 08:34:03;;;;;;;18.60;14.57;;;;;;;19.43;66.74;102113.31;5025078;28;20616;-46
2021/08/21 08:36:28;;;;;;;17.73;14.05;;;;;;;19.87;66.94;102105.34;5026050;28;20041;-47
2021/08/21 08:38:54;;;;;;;16.85;12.68;;;;;;;20.30;65.69;102107.63;5027250;28;20111;-47
2021/08/21 08:41:23;;;;;;;17.10;13.82;;;;;;;20.43;65.35;102104.28;5022511;28;20040;-49
2021/08/21 08:43:49;;;;;;;19.23;13.65;;;;;;;20.77;64.96;102102.44;5025812;28;20043;-47
2021/08/21 08:46:18;;;;;;;17.67;14.15;;;;;;;21.16;65.52;102109.75;5025282;28;20029;-48
2021/08/21 08:48:45;;;;;;;16.83;12.52;;;;;;;21.63;64.67;102105.50;5025269;28;20119;-48
2021/08/21 08:51:11;;;;;;;16.40;11.70;;;;;;;21.87;62.40;102111.75;5023843;28;20120;-48
2021/08/21 08:53:37;;;;;;;11.98;10.15;;;;;;;22.05;60.76;102106.66;5025977;28;20047;-46
2021/08/21 08:56:03;;;;;;;12.23;9.13;;;;;;;22.28;59.87;102103.09;5024429;28;20115;-50
2021/08/21 08:58:28;;;;;;;10.55;9.35;;;;;;;22.84;59.56;102107.75;5027972;28;20136;-47
2021/08/21 09:00:54;;;;;;;9.93;8.93;;;;;;;23.38;58.69;102103.56;5023377;28;20037;-46
2021/08/21 09:03:25;;;;;;;9.40;8.23;;;;;;;23.77;57.52;102103.91;5025460;28;20063;-48
2021/08/21 09:05:52;;;;;;;9.40;7.68;;;;;;;24.07;57.17;102101.66;5025582;28;20036;-50
2021/08/21 09:08:29;;;;;;;10.82;8.27;;;;;;;24.43;55.01;102104.47;5025907;28;21661;-47
2021/08/21 09:11:00;;;;;;;11.80;7.65;;;;;;;24.29;50.03;102099.00;5027528;28;20040;-47
2021/08/21 09:13:27;;;;;;;10.00;9.00;;;;;;;23.96;53.16;102100.25;5021782;28;20569;-47
2021/08/21 09:15:58;;;;;;;10.93;9.68;;;;;;;23.43;55.21;102103.44;5026102;28;20025;-48
2021/08/21 09:18:25;;;;;;;9.02;7.88;;;;;;;22.91;54.88;102103.53;5027103;28;20036;-47
2021/08/21 09:20:55;;;;;;;11.68;8.10;;;;;;;22.46;55.54;102106.94;5025057;28;20382;-46
2021/08/21 09:23:25;;;;;;;10.10;8.63;;;;;;;22.23;56.50;102108.63;5028065;28;20115;-46
2021/08/21 09:26:04;;;;;;;9.90;8.88;;;;;;;22.18;57.55;102111.41;5027515;28;20115;-46
2021/08/21 09:28:30;;;;;;;10.15;8.63;;;;;;;;;;5025943;28;20410;-47
2021/08/21 09:31:09;;;;;;;8.07;7.28;;;;;;;22.37;56.99;102105.97;5028296;28;20044;-47
2021/08/21 09:33:37;;;;;;;7.30;6.50;;;;;;;22.32;55.73;102098.66;5027890;28;20905;-48
2021/08/21 09:36:03;;;;;;;8.23;7.18;;;;;;;22.56;55.34;102102.13;5027052;28;20029;-46
2021/08/21 09:38:34;;;;;;;9.18;8.25;;;;;;;22.59;55.39;102104.25;5027898;28;20610;-48
2021/08/21 09:41:08;;;;;;;7.63;6.57;;;;;;;22.56;54.53;102110.31;5026869;28;20025;-47
2021/08/21 09:44:09;;;;;;;8.00;6.95;;;;;;;22.50;54.74;102102.50;5023615;28;20037;-47
2021/08/21 09:46:40;;;;;;;8.65;7.10;;;;;;;22.78;54.80;102108.91;5009146;28;20283;-48
2021/08/21 09:49:07;;;;;;;6.97;6.20;;;;;;;23.05;53.64;102105.50;5024889;28;20076;-47
2021/08/21 09:51:47;;;;;;;6.70;5.90;;;;;;;22.99;53.13;102098.50;5025162;28;20721;-46
2021/08/21 09:54:21;;;;;;;6.70;6.10;;;;;;;22.92;52.82;102096.13;5023897;28;20020;-47
2021/08/21 09:56:55;;;;;;;6.30;5.70;;;;;;;22.67;52.52;102093.78;5024010;28;20108;-47
2021/08/21 09:59:44;;;;;;;7.05;5.10;;;;;;;22.44;53.11;102104.50;5023930;28;20044;-48
2021/08/21 10:02:14;;;;;;;5.65;4.97;;;;;;;22.40;52.94;102098.00;5022641;28;20664;-48
2021/08/21 10:04:43;;;;;;;5.82;4.88;;;;;;;22.29;52.34;102096.53;5024240;28;20033;-47
2021/08/21 10:07:15;;;;;;;5.47;4.70;;;;;;;21.97;53.44;102106.19;5021284;28;20714;-49
2021/08/21 10:09:42;;;;;;;4.43;3.78;;;;;;;21.93;53.27;102096.16;5020825;28;20070;-48
2021/08/21 10:12:13;;;;;;;4.35;3.42;;;;;;;21.46;54.82;102091.50;5023227;28;20029;-50
2021/08/21 10:14:45;;;;;;;4.35;3.00;;;;;;;21.33;54.79;102091.06;5021586;28;20490;-47
2021/08/21 10:17:11;;;;;;;6.07;3.05;;;;;;;21.59;54.27;102097.09;5022944;28;20049;-47
2021/08/21 10:19:40;;;;;;;4.55;3.10;;;;;;;22.05;53.40;102088.38;5024073;28;20029;-50
2021/08/21 10:22:08;;;;;;;4.50;2.95;;;;;;;22.27;52.09;102087.84;5024925;28;20571;-48
2021/08/21 10:24:38;;;;;;;4.22;3.00;;;;;;;22.13;52.45;102086.94;5024167;28;20029;-48
2021/08/21 10:27:24;;;;;;;7.00;2.90;;;;;;;22.29;51.93;102089.16;5023063;28;20039;-49
2021/08/21 10:30:17;;;;;;;3.50;2.90;;;;;;;22.13;48.79;102097.84;5023390;28;20044;-48
2021/08/21 10:32:58;;;;;;;3.13;2.67;;;;;;;21.83;52.26;102094.34;5026152;28;20025;-46
2021/08/21 10:35:41;;;;;;;3.08;2.78;;;;;;;22.39;52.50;102095.56;5026974;28;20067;-47
2021/08/21 10:38:31;;;;;;;7.90;5.70;;;;;;;22.73;50.69;102089.88;5025079;28;20033;-47
2021/08/21 10:41:13;;;;;;;10.02;7.20;;;;;;;22.88;50.01;102090.47;5019277;28;20053;-46
2021/08/21 10:43:46;;;;;;;3.95;3.05;;;;;;;22.62;50.38;102089.19;5030494;28;20542;-47
2021/08/21 10:46:32;;;;;;;2.45;2.00;;;;;;;22.94;50.58;102093.91;5023658;28;20021;-49
2021/08/21 10:49:00;;;;;;;3.00;1.85;;;;;;;23.41;49.10;102081.06;5023762;28;20029;-47
2021/08/21 10:51:39;;;;;;;1.63;1.38;;;;;;;23.52;46.04;102079.78;5024147;28;20033;-49
2021/08/21 10:54:26;;;;;;;2.03;1.40;;;;;;;24.27;45.99;102073.84;5025553;28;20219;-47
2021/08/21 10:57:17;;;;;;;1.50;1.23;;;;;;;24.28;43.61;102080.94;5024038;28;20489;-46
2021/08/21 10:59:45;;;;;;;1.25;0.90;;;;;;;23.95;45.16;102080.28;5021037;28;20040;-47
2021/08/21 11:02:29;;;;;;;1.35;1.00;;;;;;;23.98;43.54;102079.66;5019143;28;20190;-46
2021/08/21 11:04:55;;;;;;;2.17;1.23;;;;;;;23.70;45.40;102072.63;5020288;28;20490;-47
2021/08/21 11:07:33;;;;;;;9.32;1.50;;;;;;;23.87;46.35;102069.22;5022311;28;20521;-48
2021/08/21 11:10:18;;;;;;;2.03;1.20;;;;;;;24.34;43.69;102076.97;5021978;28;20070;-47
2021/08/21 11:12:50;;;;;;;3.08;1.10;;;;;;;23.97;44.53;102071.75;5021734;28;20407;-48
2021/08/21 11:15:33;;;;;;;1.30;0.70;;;;;;;23.06;45.85;102077.88;5020458;28;22157;-51